Almond, New York
Current Conditions -  °F | °C
As of 7:54 PM on Saturday 22 Nov 2014 (Local Time) from KDSV Reporting Station
Overcast Overcast  
Wind Chill: 38°   Ceiling: 2400
Heat Index: 44°   Visibility: 10mi
Dew Point: 38°   Wind: 12mph
Humidity: 79%   Direction: 120°ESE
Pressure: 30.03"   Gusts: NA
Location:  42.32°N, 77.74°W
Report Text: KDSV 230054Z AUTO 12010KT 10SM OVC024 07/03 A3003 RMK AO2 RAB26E46 SLP185 P0000 T00670033
Loading
Personal Weather Stations






























Interactive Weather Map New forecast layout! Learn more

10-Day Weather Forecast

Advertisements
Track Severe Weather on mobile